Time;durP1;ratioP1;P1;durP2;ratioP2;P2;SDS_P1;SDS_P2;PMS_P1;PMS_P2;Temp;Humidity;BMP_temperature;BMP_pressure;BME280_temperature;BME280_humidity;BME280_pressure;Samples;Min_cycle;Max_cycle;Signal;HPM_P1;HPM_P2
2023/09/19 00:01:45;;;;;;;22.50;18.25;;;21.00;99.90;;;;;;5097289;28;20028;-65
2023/09/19 00:04:12;;;;;;;28.38;18.30;;;21.00;99.90;;;;;;5097028;28;20039;-66
2023/09/19 00:06:39;;;;;;;24.67;17.75;;;20.90;99.90;;;;;;5097197;28;20485;-65
2023/09/19 00:09:10;;;;;;;25.33;17.42;;;20.90;99.90;;;;;;5096967;28;20359;-65
2023/09/19 00:11:37;;;;;;;24.70;16.85;;;20.90;99.90;;;;;;5097137;28;20032;-65
2023/09/19 00:14:05;;;;;;;19.90;15.38;;;20.90;99.90;;;;;;5096569;28;20481;-66
2023/09/19 00:16:32;;;;;;;27.58;17.83;;;20.80;99.90;;;;;;5097096;28;20081;-65
2023/09/19 00:18:59;;;;;;;24.38;16.63;;;20.80;99.90;;;;;;5096780;28;20425;-66
2023/09/19 00:21:25;;;;;;;28.20;16.88;;;20.80;99.90;;;;;;5096995;28;20517;-66
2023/09/19 00:23:51;;;;;;;23.23;15.90;;;20.70;99.90;;;;;;5096634;28;20147;-66
2023/09/19 00:26:18;;;;;;;23.38;16.85;;;20.70;99.90;;;;;;5096844;28;20078;-66
2023/09/19 00:28:47;;;;;;;23.40;16.70;;;20.70;99.90;;;;;;5096652;28;20031;-65
2023/09/19 00:31:13;;;;;;;26.70;17.08;;;20.70;99.90;;;;;;5096629;28;20020;-65
2023/09/19 00:33:39;;;;;;;24.50;17.50;;;20.80;99.90;;;;;;5078489;28;20039;-66
2023/09/19 00:36:05;;;;;;;24.17;16.92;;;20.80;99.90;;;;;;5078158;28;20032;-66
2023/09/19 00:38:31;;;;;;;24.70;17.48;;;20.80;99.90;;;;;;5096914;28;20528;-66
2023/09/19 00:40:59;;;;;;;24.42;16.83;;;20.80;99.90;;;;;;5095011;28;20020;-66
2023/09/19 00:43:27;;;;;;;22.50;16.23;;;20.80;99.90;;;;;;5096420;28;20028;-66
2023/09/19 00:45:55;;;;;;;24.08;17.50;;;20.80;99.90;;;;;;5096140;28;20489;-66
2023/09/19 00:48:21;;;;;;;24.40;17.45;;;20.60;99.90;;;;;;5078433;28;20027;-65
2023/09/19 00:50:49;;;;;;;24.52;16.60;;;20.70;99.90;;;;;;5077636;28;20107;-66
2023/09/19 00:53:22;;;;;;;23.90;16.77;;;20.70;99.90;;;;;;5091089;28;20028;-65
2023/09/19 00:55:50;;;;;;;22.15;16.35;;;20.70;99.90;;;;;;5079754;28;20027;-66
2023/09/19 00:58:18;;;;;;;23.13;15.93;;;20.70;99.90;;;;;;5096306;28;20050;-65
2023/09/19 01:00:46;;;;;;;22.38;16.05;;;20.70;99.90;;;;;;5095757;28;20105;-65
2023/09/19 01:03:13;;;;;;;20.75;14.80;;;20.70;99.90;;;;;;5077852;28;20066;-65
2023/09/19 01:05:40;;;;;;;26.20;16.08;;;20.70;99.90;;;;;;5095758;28;20028;-65
2023/09/19 01:08:07;;;;;;;20.52;15.57;;;20.80;99.90;;;;;;5096380;28;20026;-66
2023/09/19 01:10:33;;;;;;;18.88;13.82;;;20.70;99.90;;;;;;5095758;28;20028;-66
2023/09/19 01:13:59;;;;;;;20.98;15.65;;;20.70;99.90;;;;;;5095854;28;20039;-65
2023/09/19 01:16:46;;;;;;;21.85;15.32;;;20.70;99.90;;;;;;4977157;28;20142;-65
2023/09/19 01:19:33;;;;;;;21.05;13.98;;;20.60;99.90;;;;;;4977552;28;20121;-66
2023/09/19 01:22:18;;;;;;;21.13;15.70;;;20.60;99.90;;;;;;4993708;28;20042;-65
2023/09/19 01:25:13;;;;;;;21.05;14.68;;;20.60;99.90;;;;;;4993594;28;20042;-65
2023/09/19 01:27:58;;;;;;;23.80;16.10;;;20.60;99.90;;;;;;4993141;28;20084;-65
2023/09/19 01:30:29;;;;;;;24.65;16.98;;;20.50;99.90;;;;;;4977524;28;20065;-65
2023/09/19 01:32:55;;;;;;;23.35;17.45;;;20.50;99.90;;;;;;4993287;28;20045;-65
2023/09/19 01:35:22;;;;;;;19.42;16.33;;;20.60;99.90;;;;;;4977379;28;20393;-65
2023/09/19 01:37:47;;;;;;;23.88;16.45;;;20.50;99.90;;;;;;4993306;28;20109;-65
2023/09/19 01:40:22;;;;;;;26.10;15.27;;;20.50;99.90;;;;;;4993579;28;20065;-65
2023/09/19 01:43:05;;;;;;;21.85;15.80;;;20.40;99.90;;;;;;4992590;28;20034;-66
2023/09/19 01:45:40;;;;;;;24.02;16.55;;;20.50;99.90;;;;;;4993629;28;20037;-65
2023/09/19 01:48:40;;;;;;;22.25;15.25;;;20.50;99.90;;;;;;5084389;28;20044;-66
2023/09/19 01:51:07;;;;;;;20.50;15.50;;;20.50;99.90;;;;;;5077003;28;20377;-65
2023/09/19 01:53:38;;;;;;;23.33;15.93;;;20.40;99.90;;;;;;5087198;28;20031;-65
2023/09/19 01:56:12;;;;;;;18.77;15.27;;;20.40;99.90;;;;;;5081028;28;20031;-65
2023/09/19 01:58:53;;;;;;;24.85;15.30;;;20.40;99.90;;;;;;5076501;28;20398;-65
2023/09/19 02:01:23;;;;;;;21.52;15.32;;;20.40;99.90;;;;;;5076938;28;20040;-65
2023/09/19 02:03:50;;;;;;;28.88;15.77;;;20.50;99.90;;;;;;5094696;28;20028;-65
2023/09/19 02:06:18;;;;;;;24.90;16.48;;;20.50;99.90;;;;;;5095200;28;20055;-65
2023/09/19 02:08:47;;;;;;;23.27;17.48;;;20.60;99.90;;;;;;5094718;28;20032;-65
2023/09/19 02:11:13;;;;;;;25.27;16.90;;;20.50;99.90;;;;;;5095163;28;20020;-65
2023/09/19 02:13:40;;;;;;;24.63;17.23;;;20.50;99.90;;;;;;5094562;28;20032;-65
2023/09/19 02:16:07;;;;;;;26.75;17.55;;;20.40;99.90;;;;;;5094797;28;20032;-65
2023/09/19 02:18:36;;;;;;;23.08;16.92;;;20.50;99.90;;;;;;5094690;28;20439;-66
2023/09/19 02:21:04;;;;;;;23.63;16.90;;;20.50;99.90;;;;;;5094892;28;20024;-65
2023/09/19 02:23:30;;;;;;;23.55;17.10;;;20.40;99.90;;;;;;5094477;28;20118;-65
2023/09/19 02:26:03;;;;;;;23.58;15.95;;;20.40;99.90;;;;;;5076447;28;20031;-65
2023/09/19 02:28:32;;;;;;;27.35;18.02;;;20.40;99.90;;;;;;5094435;28;20032;-65
2023/09/19 02:30:59;;;;;;;22.90;16.50;;;20.40;99.90;;;;;;5076499;28;20032;-65
2023/09/19 02:33:25;;;;;;;23.08;17.48;;;20.40;99.90;;;;;;5094399;28;20024;-65
2023/09/19 02:35:59;;;;;;;22.50;16.88;;;20.30;99.90;;;;;;5076988;28;20031;-65
2023/09/19 02:38:25;;;;;;;20.88;15.77;;;20.30;99.90;;;;;;5075829;28;20042;-65
2023/09/19 02:40:52;;;;;;;25.17;16.92;;;20.20;99.90;;;;;;5094650;28;20103;-65
2023/09/19 02:43:21;;;;;;;24.90;18.00;;;20.20;99.90;;;;;;5094286;28;20035;-65
2023/09/19 02:45:53;;;;;;;23.80;17.70;;;20.10;99.90;;;;;;5076318;28;20032;-65
2023/09/19 02:48:19;;;;;;;20.90;16.13;;;20.00;99.90;;;;;;5076129;28;20116;-65
2023/09/19 02:50:49;;;;;;;26.30;16.40;;;19.90;99.90;;;;;;5076096;28;20020;-65
2023/09/19 02:53:15;;;;;;;24.83;16.88;;;19.90;99.90;;;;;;5088690;28;20466;-65
2023/09/19 02:55:42;;;;;;;21.42;16.25;;;19.90;99.90;;;;;;5079966;28;20399;-65
2023/09/19 02:58:10;;;;;;;23.33;16.92;;;19.80;99.90;;;;;;5080353;28;20048;-65
2023/09/19 03:00:37;;;;;;;22.08;16.95;;;19.80;99.90;;;;;;5097873;28;20055;-65
2023/09/19 03:03:04;;;;;;;25.45;18.17;;;19.70;99.90;;;;;;5096992;28;20034;-65
2023/09/19 03:05:30;;;;;;;22.42;16.70;;;19.70;99.90;;;;;;5079737;28;20028;-65
2023/09/19 03:08:00;;;;;;;22.42;16.95;;;19.60;99.90;;;;;;5080340;28;20369;-65
2023/09/19 03:10:27;;;;;;;23.35;16.40;;;19.60;99.90;;;;;;5079959;28;20093;-65
2023/09/19 03:12:54;;;;;;;21.77;16.58;;;19.50;99.90;;;;;;5079890;28;20063;-65
2023/09/19 03:15:21;;;;;;;21.98;17.35;;;19.50;99.90;;;;;;5079636;28;20024;-65
2023/09/19 03:17:49;;;;;;;25.10;16.65;;;19.50;99.90;;;;;;5080174;28;20024;-65
2023/09/19 03:20:20;;;;;;;23.65;16.23;;;19.40;99.90;;;;;;5079822;28;20035;-65
2023/09/19 03:22:48;;;;;;;23.08;16.05;;;19.40;99.90;;;;;;5080003;28;20035;-65
2023/09/19 03:25:17;;;;;;;27.55;17.08;;;19.40;99.90;;;;;;5079811;28;20058;-65
2023/09/19 03:27:45;;;;;;;23.25;16.92;;;19.40;99.90;;;;;;5079944;28;20044;-65
2023/09/19 03:30:13;;;;;;;27.00;17.35;;;19.40;99.90;;;;;;5079579;28;20032;-65
2023/09/19 03:32:47;;;;;;;23.60;16.38;;;19.40;99.90;;;;;;5079697;28;20027;-65
2023/09/19 03:35:14;;;;;;;24.95;17.02;;;19.30;99.90;;;;;;5097531;28;20105;-65
2023/09/19 03:37:41;;;;;;;25.60;16.88;;;19.30;99.90;;;;;;5097923;28;20024;-65
2023/09/19 03:40:10;;;;;;;24.23;17.45;;;19.20;99.90;;;;;;5079233;28;20420;-65
2023/09/19 03:42:40;;;;;;;24.77;15.98;;;19.20;99.90;;;;;;5079452;28;20031;-65
2023/09/19 03:45:15;;;;;;;26.65;16.42;;;19.20;99.90;;;;;;5079140;28;20032;-65
2023/09/19 03:47:49;;;;;;;28.13;17.73;;;19.00;99.90;;;;;;5079398;28;20389;-65
2023/09/19 03:50:18;;;;;;;20.30;15.25;;;19.00;99.90;;;;;;5078924;28;20028;-65
2023/09/19 03:52:44;;;;;;;21.40;15.68;;;18.90;99.90;;;;;;5078331;28;20028;-65
2023/09/19 03:55:10;;;;;;;23.88;16.83;;;18.80;99.90;;;;;;5058902;28;20020;-65
2023/09/19 03:57:38;;;;;;;25.45;16.38;;;18.80;99.90;;;;;;5078241;28;20077;-65
2023/09/19 04:00:11;;;;;;;22.67;16.30;;;18.80;99.90;;;;;;5079399;28;20047;-65
2023/09/19 04:02:39;;;;;;;22.35;15.05;;;18.80;99.90;;;;;;5096817;28;20032;-65
2023/09/19 04:05:06;;;;;;;24.52;16.63;;;18.80;99.90;;;;;;5078774;28;20028;-65
2023/09/19 04:07:32;;;;;;;20.50;16.30;;;18.80;99.90;;;;;;5097021;28;20066;-65
2023/09/19 04:09:58;;;;;;;24.40;17.67;;;18.70;99.90;;;;;;5079162;28;20055;-65
2023/09/19 04:12:23;;;;;;;22.75;16.88;;;18.70;99.90;;;;;;5078485;28;20032;-65
2023/09/19 04:14:50;;;;;;;24.83;16.25;;;18.60;99.90;;;;;;5097069;28;20038;-65
2023/09/19 04:17:16;;;;;;;25.40;16.17;;;18.60;99.90;;;;;;5078650;28;20032;-65
2023/09/19 04:19:42;;;;;;;21.40;15.85;;;18.50;99.90;;;;;;5078968;28;20028;-65
2023/09/19 04:22:09;;;;;;;22.35;16.60;;;18.50;99.90;;;;;;5078560;28;20032;-65
2023/09/19 04:24:35;;;;;;;24.27;16.58;;;18.50;99.90;;;;;;5078671;28;20085;-65
2023/09/19 04:27:01;;;;;;;29.77;17.52;;;18.50;99.90;;;;;;5095230;28;20666;-65
2023/09/19 04:29:29;;;;;;;24.05;15.82;;;18.50;99.90;;;;;;5096878;28;20020;-65
2023/09/19 04:31:56;;;;;;;32.92;17.10;;;18.50;99.90;;;;;;5096572;28;20433;-65
2023/09/19 04:34:23;;;;;;;26.23;16.80;;;18.50;99.90;;;;;;5096860;28;20384;-65
2023/09/19 04:36:49;;;;;;;28.23;17.98;;;18.50;99.90;;;;;;5096452;28;20031;-65
2023/09/19 04:39:16;;;;;;;23.10;16.15;;;18.60;99.90;;;;;;5096505;28;20073;-65
2023/09/19 04:41:42;;;;;;;25.38;16.25;;;18.50;99.90;;;;;;5096342;28;20492;-65
2023/09/19 04:44:08;;;;;;;27.80;16.58;;;18.50;99.90;;;;;;5096554;28;20068;-65
2023/09/19 04:46:35;;;;;;;24.25;16.38;;;18.50;99.90;;;;;;5097061;28;20031;-65
2023/09/19 04:49:01;;;;;;;28.42;16.52;;;18.60;99.90;;;;;;5096441;28;20081;-65
2023/09/19 04:51:30;;;;;;;31.83;17.40;;;18.60;99.90;;;;;;5096219;28;20024;-65
2023/09/19 04:53:56;;;;;;;26.17;16.27;;;18.60;99.90;;;;;;5084823;28;20484;-65
2023/09/19 04:56:23;;;;;;;26.25;17.13;;;18.80;99.90;;;;;;5084810;28;20162;-65
2023/09/19 04:58:49;;;;;;;24.17;15.73;;;18.80;99.90;;;;;;5095668;28;20493;-65
2023/09/19 05:01:15;;;;;;;33.00;17.77;;;18.80;99.90;;;;;;5096307;28;20032;-65
2023/09/19 05:03:42;;;;;;;32.15;17.10;;;18.80;99.90;;;;;;5095896;28;20032;-65
2023/09/19 05:06:07;;;;;;;36.70;18.75;;;18.90;99.90;;;;;;5096116;28;20025;-65
2023/09/19 05:08:33;;;;;;;34.03;17.20;;;19.00;99.90;;;;;;5095760;28;20035;-65
2023/09/19 05:11:02;;;;;;;32.90;16.33;;;19.00;99.90;;;;;;5096406;28;20479;-65
2023/09/19 05:13:28;;;;;;;28.27;16.23;;;19.10;99.90;;;;;;5094648;28;20032;-65
2023/09/19 05:15:54;;;;;;;23.17;15.80;;;19.20;99.90;;;;;;5096105;28;20035;-65
2023/09/19 05:18:21;;;;;;;30.27;16.00;;;19.30;99.90;;;;;;5094876;28;20101;-65
2023/09/19 05:20:48;;;;;;;25.98;15.50;;;19.30;99.90;;;;;;5094716;28;20028;-65
2023/09/19 05:23:14;;;;;;;25.45;15.15;;;19.40;99.90;;;;;;5095273;28;20035;-65
2023/09/19 05:25:40;;;;;;;24.42;15.77;;;19.50;99.90;;;;;;5095487;28;20024;-65
2023/09/19 05:28:07;;;;;;;24.02;15.25;;;19.40;99.90;;;;;;5095504;28;20466;-65
2023/09/19 05:30:35;;;;;;;28.92;15.90;;;19.40;99.90;;;;;;5092984;28;20028;-65
2023/09/19 05:33:04;;;;;;;30.83;15.90;;;19.50;99.90;;;;;;5094861;28;20024;-65
2023/09/19 05:35:30;;;;;;;27.00;14.98;;;19.60;99.90;;;;;;5094655;28;20401;-65
2023/09/19 05:37:57;;;;;;;33.25;14.90;;;19.70;99.90;;;;;;5095470;28;20024;-65
2023/09/19 05:40:24;;;;;;;34.72;16.73;;;19.80;99.90;;;;;;5093798;28;20449;-65
2023/09/19 05:42:51;;;;;;;26.33;14.57;;;20.00;99.90;;;;;;5095284;28;20035;-65
2023/09/19 05:45:22;;;;;;;24.55;14.18;;;20.10;99.90;;;;;;5094192;28;20012;-65
2023/09/19 05:47:55;;;;;;;36.53;14.60;;;20.30;99.90;;;;;;5075302;28;20056;-65
2023/09/19 05:50:26;;;;;;;33.20;15.52;;;20.50;99.90;;;;;;5073602;28;20058;-65
2023/09/19 05:53:04;;;;;;;29.73;16.48;;;20.70;99.90;;;;;;5076796;28;20503;-65
2023/09/19 05:55:33;;;;;;;39.80;18.05;;;20.90;99.90;;;;;;5091961;28;20086;-65
2023/09/19 05:58:03;;;;;;;38.35;16.98;;;21.00;99.90;;;;;;5094475;28;20135;-65
2023/09/19 06:00:32;;;;;;;36.88;16.85;;;21.30;99.90;;;;;;5093700;28;20497;-65
2023/09/19 06:02:59;;;;;;;33.15;16.85;;;21.50;99.90;;;;;;5076276;28;20143;-65
2023/09/19 06:05:27;;;;;;;43.83;15.82;;;21.70;99.90;;;;;;5094817;28;20111;-65
2023/09/19 06:07:55;;;;;;;35.70;15.82;;;22.00;99.90;;;;;;5076632;28;20048;-65
2023/09/19 06:10:23;;;;;;;32.22;14.52;;;22.10;99.90;;;;;;5076183;28;20044;-65
2023/09/19 06:12:49;;;;;;;37.42;14.43;;;22.30;99.90;;;;;;5094474;28;20020;-66
2023/09/19 06:15:18;;;;;;;46.25;16.88;;;22.40;99.90;;;;;;5093072;28;20031;-65
2023/09/19 06:17:49;;;;;;;49.25;18.48;;;22.70;99.90;;;;;;5093961;28;20036;-65
2023/09/19 06:20:19;;;;;;;50.13;18.88;;;23.00;99.90;;;;;;5095269;28;20063;-65
2023/09/19 06:22:46;;;;;;;55.43;18.87;;;23.20;99.90;;;;;;5095209;28;20032;-65
2023/09/19 06:25:19;;;;;;;49.58;17.73;;;23.60;99.90;;;;;;5092819;28;20292;-65
2023/09/19 06:27:45;;;;;;;51.05;19.42;;;24.10;99.90;;;;;;5090996;28;20032;-65
2023/09/19 06:30:12;;;;;;;80.70;45.60;;;24.50;99.90;;;;;;5093967;28;20024;-65
2023/09/19 06:32:38;;;;;;;131.48;58.30;;;24.70;98.70;;;;;;5094600;28;20047;-65
2023/09/19 06:35:08;;;;;;;91.18;45.13;;;24.80;98.40;;;;;;5093090;28;20033;-65
2023/09/19 06:37:38;;;;;;;68.85;30.48;;;25.10;97.40;;;;;;5076141;28;20060;-65
2023/09/19 06:40:14;;;;;;;51.75;21.58;;;25.40;97.00;;;;;;5076656;28;20063;-65
2023/09/19 06:42:46;;;;;;;46.75;16.27;;;26.00;96.10;;;;;;5095304;28;20040;-65
2023/09/19 06:45:18;;;;;;;38.35;14.70;;;26.10;93.80;;;;;;5094798;28;20032;-65
2023/09/19 06:47:45;;;;;;;41.13;13.35;;;26.40;93.60;;;;;;5094636;28;20059;-65
2023/09/19 06:50:14;;;;;;;33.53;13.40;;;26.70;92.20;;;;;;5095023;28;20229;-65
2023/09/19 06:52:43;;;;;;;33.25;13.07;;;26.90;91.70;;;;;;5094475;28;20024;-65
2023/09/19 06:55:11;;;;;;;28.80;12.23;;;27.00;88.90;;;;;;5094501;28;20468;-65
2023/09/19 06:57:37;;;;;;;39.42;13.40;;;27.30;86.90;;;;;;5094074;28;20016;-65
2023/09/19 07:00:09;;;;;;;31.67;12.65;;;27.30;86.20;;;;;;5093569;28;20700;-65
2023/09/19 07:02:35;;;;;;;23.70;12.32;;;27.60;85.80;;;;;;5093281;28;20023;-65
2023/09/19 07:05:01;;;;;;;26.08;12.57;;;27.50;83.90;;;;;;5093893;28;20024;-65
2023/09/19 07:07:30;;;;;;;35.58;11.98;;;27.80;82.90;;;;;;5098469;28;20034;-65
2023/09/19 07:09:58;;;;;;;35.08;12.13;;;28.10;81.90;;;;;;5094416;28;20034;-66
2023/09/19 07:12:24;;;;;;;28.73;13.20;;;28.00;81.80;;;;;;5099322;28;20529;-66
2023/09/19 07:14:55;;;;;;;30.02;13.40;;;28.10;81.70;;;;;;5099118;28;20028;-65
2023/09/19 07:17:24;;;;;;;33.13;16.50;;;28.10;80.30;;;;;;5089980;28;20156;-65
2023/09/19 07:19:50;;;;;;;40.17;15.00;;;28.10;78.30;;;;;;5074720;28;20062;-65
2023/09/19 07:22:16;;;;;;;49.50;14.68;;;28.20;79.30;;;;;;5094046;28;20128;-65
2023/09/19 07:24:42;;;;;;;32.97;13.93;;;28.40;78.60;;;;;;5095034;28;20043;-65
2023/09/19 07:27:08;;;;;;;28.10;13.90;;;28.90;78.90;;;;;;5092101;28;20028;-65
2023/09/19 07:29:38;;;;;;;26.65;11.65;;;28.80;75.60;;;;;;5089016;28;20431;-65
2023/09/19 07:32:04;;;;;;;40.80;13.98;;;29.20;76.20;;;;;;5091789;28;20016;-65
2023/09/19 07:34:30;;;;;;;35.10;11.52;;;29.40;74.10;;;;;;5093214;28;20075;-65
2023/09/19 07:36:56;;;;;;;37.33;12.30;;;29.30;71.60;;;;;;5093947;28;20026;-65
2023/09/19 07:39:22;;;;;;;41.97;12.05;;;29.40;68.90;;;;;;5108089;28;20032;-65
2023/09/19 07:41:49;;;;;;;36.92;12.52;;;29.50;70.10;;;;;;5117081;28;20092;-65
2023/09/19 07:44:15;;;;;;;58.65;14.77;;;29.50;70.50;;;;;;5117870;28;20042;-66
2023/09/19 07:46:41;;;;;;;59.10;19.13;;;29.00;69.80;;;;;;5117784;28;20107;-65
2023/09/19 07:49:07;;;;;;;56.25;17.02;;;28.90;71.00;;;;;;5116874;28;20031;-65
2023/09/19 07:51:34;;;;;;;51.28;16.95;;;29.50;69.00;;;;;;5116129;28;20030;-65
2023/09/19 07:54:01;;;;;;;66.72;16.75;;;30.20;70.60;;;;;;5104109;28;20024;-65
2023/09/19 07:56:27;;;;;;;56.47;17.17;;;30.50;64.50;;;;;;5097048;28;20091;-66
2023/09/19 07:58:53;;;;;;;44.72;14.40;;;30.20;63.60;;;;;;5093711;28;20036;-66
2023/09/19 08:01:19;;;;;;;44.58;13.27;;;30.50;64.20;;;;;;5096064;28;20126;-66
2023/09/19 08:03:45;;;;;;;43.00;13.00;;;31.00;62.40;;;;;;5095649;28;20062;-66
2023/09/19 08:06:11;;;;;;;47.40;11.93;;;30.70;61.20;;;;;;5095586;28;20382;-66
2023/09/19 08:08:37;;;;;;;43.47;12.13;;;31.20;59.90;;;;;;5095815;28;20020;-66
2023/09/19 08:11:12;;;;;;;34.28;9.60;;;31.40;57.30;;;;;;5096384;28;20028;-66
2023/09/19 08:13:45;;;;;;;39.00;11.77;;;31.60;57.50;;;;;;5096495;28;20035;-66
2023/09/19 08:16:11;;;;;;;36.63;12.05;;;31.80;57.00;;;;;;5095576;28;20512;-66
2023/09/19 08:18:39;;;;;;;37.90;10.48;;;31.80;55.40;;;;;;5095677;28;20028;-66
2023/09/19 08:21:10;;;;;;;39.58;10.95;;;32.40;54.80;;;;;;5093248;28;20114;-66
2023/09/19 08:23:45;;;;;;;35.47;11.25;;;32.20;53.50;;;;;;5095603;28;20412;-66
2023/09/19 08:26:12;;;;;;;34.92;11.65;;;32.80;55.70;;;;;;5093266;28;20358;-66
2023/09/19 08:28:40;;;;;;;38.92;11.93;;;33.70;52.70;;;;;;5094240;28;20116;-66
2023/09/19 08:31:10;;;;;;;43.92;12.13;;;33.90;50.00;;;;;;5095797;28;20484;-67
2023/09/19 08:33:36;;;;;;;57.60;14.38;;;34.00;48.80;;;;;;5095372;28;20028;-66
2023/09/19 08:36:07;;;;;;;54.42;12.70;;;34.20;48.30;;;;;;5095449;28;20036;-67
2023/09/19 08:38:34;;;;;;;32.80;10.73;;;34.50;44.80;;;;;;5095285;28;20024;-66
2023/09/19 08:41:04;;;;;;;48.38;12.40;;;34.50;44.90;;;;;;5095115;28;20024;-67
2023/09/19 08:43:33;;;;;;;35.53;10.68;;;34.40;43.90;;;;;;5078355;28;20036;-67
2023/09/19 08:46:06;;;;;;;26.10;8.80;;;34.70;43.90;;;;;;5089463;28;20044;-67
2023/09/19 08:48:41;;;;;;;30.08;9.48;;;35.10;42.80;;;;;;5095527;28;20405;-66
2023/09/19 08:51:10;;;;;;;33.75;9.65;;;35.00;41.80;;;;;;5095003;28;20043;-67
2023/09/19 08:53:59;;;;;;;35.40;9.80;;;35.20;42.00;;;;;;5093982;28;20046;-66
2023/09/19 08:56:29;;;;;;;26.92;7.15;;;35.10;40.80;;;;;;5094075;28;20389;-66
2023/09/19 08:58:59;;;;;;;29.23;7.50;;;34.90;38.90;;;;;;5096998;28;20080;-66
2023/09/19 09:01:28;;;;;;;27.27;8.13;;;34.80;38.10;;;;;;5096385;28;20028;-66
2023/09/19 09:03:55;;;;;;;26.10;7.13;;;35.20;37.50;;;;;;5096519;28;20032;-66
2023/09/19 09:06:23;;;;;;;21.13;6.00;;;35.00;35.30;;;;;;5096535;28;20184;-66
2023/09/19 09:08:51;;;;;;;27.67;7.18;;;34.90;36.30;;;;;;5095701;28;20462;-67
2023/09/19 09:11:18;;;;;;;30.88;7.40;;;35.10;36.00;;;;;;5095664;28;20065;-67
2023/09/19 09:13:45;;;;;;;26.58;8.05;;;35.50;35.60;;;;;;5095582;28;20035;-66
2023/09/19 09:16:13;;;;;;;28.85;7.03;;;35.80;34.90;;;;;;5095294;28;20118;-67
2023/09/19 09:18:40;;;;;;;22.27;6.90;;;35.80;32.60;;;;;;5095985;28;20066;-67
2023/09/19 09:21:06;;;;;;;28.90;7.35;;;36.70;33.00;;;;;;5095904;28;20464;-66
2023/09/19 09:23:33;;;;;;;24.17;7.00;;;36.70;29.90;;;;;;5095257;28;20024;-66
2023/09/19 09:26:02;;;;;;;31.35;7.72;;;36.70;31.60;;;;;;5092692;28;20031;-67
2023/09/19 09:28:30;;;;;;;26.70;7.60;;;36.40;31.40;;;;;;5090304;28;20038;-66
2023/09/19 09:31:07;;;;;;;31.75;7.82;;;36.00;31.10;;;;;;5094481;28;20484;-67
2023/09/19 09:33:34;;;;;;;27.33;6.68;;;35.90;31.50;;;;;;5095556;28;20032;-66
2023/09/19 09:36:02;;;;;;;31.77;6.57;;;35.70;30.30;;;;;;5094913;28;20485;-66
2023/09/19 09:38:43;;;;;;;31.23;6.40;;;35.60;29.20;;;;;;5095196;28;20039;-66
2023/09/19 09:41:09;;;;;;;33.10;6.90;;;36.00;28.90;;;;;;5093892;28;20028;-67
2023/09/19 09:43:38;;;;;;;31.98;6.20;;;35.90;27.80;;;;;;5104246;28;20038;-67
2023/09/19 09:46:58;;;;;;;37.83;6.82;;;36.40;28.00;;;;;;5093808;28;20027;-67
2023/09/19 09:52:07;;;;;;;35.95;7.10;;;36.10;26.30;;;;;;5096850;28;20030;-67
2023/09/19 09:54:38;;;;;;;31.30;6.60;;;36.00;26.30;;;;;;5101739;28;20106;-67
2023/09/19 09:57:16;;;;;;;40.67;6.78;;;35.70;25.80;;;;;;5097270;28;20404;-67
2023/09/19 10:00:14;;;;;;;26.88;6.35;;;36.10;26.20;;;;;;5102095;28;20035;-67
2023/09/19 10:02:40;;;;;;;31.08;6.35;;;36.10;26.70;;;;;;5099195;28;20032;-67
2023/09/19 10:07:53;;;;;;;28.30;5.93;;;36.40;27.00;;;;;;5095418;28;20052;-67
2023/09/19 10:13:15;;;;;;;32.30;7.07;;;36.60;26.70;;;;;;5093756;28;20024;-66
2023/09/19 10:15:50;;;;;;;24.30;5.35;;;36.50;25.10;;;;;;5095710;28;20028;-67
2023/09/19 10:18:24;;;;;;;20.73;5.45;;;36.70;26.00;;;;;;5095219;28;20416;-67
2023/09/19 10:20:51;;;;;;;29.58;6.20;;;37.00;24.80;;;;;;5095318;28;20047;-67
2023/09/19 10:23:23;;;;;;;25.90;6.82;;;36.50;24.30;;;;;;5095289;28;20107;-67
2023/09/19 10:25:50;;;;;;;35.97;7.38;;;36.90;24.20;;;;;;5095342;28;20028;-67
2023/09/19 10:28:21;;;;;;;32.38;6.70;;;37.40;24.90;;;;;;5094539;28;20020;-67
2023/09/19 10:30:54;;;;;;;30.83;6.72;;;37.60;23.80;;;;;;5095109;28;20376;-67
2023/09/19 10:33:21;;;;;;;22.88;6.85;;;38.00;26.40;;;;;;5093780;28;20032;-67
2023/09/19 10:35:59;;;;;;;26.30;6.75;;;37.70;23.30;;;;;;5093708;28;20035;-67
2023/09/19 10:38:36;;;;;;;32.85;7.35;;;37.50;24.60;;;;;;5097802;28;20032;-68
2023/09/19 10:41:10;;;;;;;25.02;6.72;;;37.40;23.70;;;;;;5103277;28;20019;-68
2023/09/19 10:43:39;;;;;;;29.38;6.15;;;37.10;25.00;;;;;;5107350;28;20028;-67
2023/09/19 10:46:12;;;;;;;26.83;6.45;;;37.60;24.70;;;;;;5094388;28;20425;-68
2023/09/19 10:48:40;;;;;;;22.75;6.00;;;37.70;24.40;;;;;;5094755;28;20534;-68
2023/09/19 10:51:13;;;;;;;22.05;5.75;;;37.20;23.80;;;;;;5094453;28;20028;-67
2023/09/19 10:53:54;;;;;;;24.30;5.25;;;36.40;24.30;;;;;;5093218;28;20031;-68
2023/09/19 10:56:36;;;;;;;23.92;5.80;;;36.00;24.80;;;;;;5093889;28;20081;-68
2023/09/19 10:59:10;;;;;;;40.63;8.63;;;35.20;25.30;;;;;;5093265;28;20051;-67
2023/09/19 11:01:51;;;;;;;20.60;7.15;;;34.90;25.80;;;;;;5093708;28;20024;-68
2023/09/19 11:04:34;;;;;;;34.08;6.15;;;34.70;25.80;;;;;;5092871;28;20032;-67
2023/09/19 11:07:11;;;;;;;34.15;9.45;;;34.60;25.80;;;;;;5073933;28;20024;-69
2023/09/19 11:10:01;;;;;;;35.75;7.32;;;34.50;26.90;;;;;;5084852;28;20016;-66
2023/09/19 11:12:40;;;;;;;;;;;34.20;27.80;;;;;;5095284;28;20028;-66
2023/09/19 11:15:08;;;;;;;27.88;6.65;;;34.10;27.50;;;;;;5092646;28;20312;-65
2023/09/19 11:17:42;;;;;;;24.48;5.70;;;33.90;28.40;;;;;;5097848;28;20020;-66
2023/09/19 11:22:51;;;;;;;32.30;7.45;;;33.70;30.00;;;;;;5097788;28;20372;-66
2023/09/19 11:28:14;;;;;;;32.38;9.85;;;33.10;32.00;;;;;;5097767;28;20027;-66
2023/09/19 11:30:45;;;;;;;30.40;7.72;;;33.30;33.50;;;;;;5097275;28;20054;-66
2023/09/19 11:33:21;;;;;;;31.17;8.30;;;33.10;34.10;;;;;;5097526;28;20026;-66
2023/09/19 11:36:24;;;;;;;30.60;6.30;;;32.50;35.00;;;;;;5096989;28;20032;-65
2023/09/19 11:38:54;;;;;;;37.55;7.93;;;31.80;37.20;;;;;;5076476;28;20036;-65
2023/09/19 11:41:20;;;;;;;30.10;6.72;;;31.10;38.70;;;;;;5076752;28;20024;-65
2023/09/19 11:43:54;;;;;;;23.98;6.68;;;29.60;41.90;;;;;;5095116;28;20073;-65
2023/09/19 11:46:21;;;;;;;24.00;5.95;;;29.10;43.50;;;;;;5094764;28;20027;-66
2023/09/19 11:48:52;;;;;;;23.20;6.38;;;28.20;46.60;;;;;;5097302;28;20069;-65
2023/09/19 11:51:26;;;;;;;29.90;6.57;;;27.90;49.60;;;;;;5096819;28;20077;-65
2023/09/19 11:54:18;;;;;;;33.50;6.65;;;27.90;51.10;;;;;;5097300;28;20024;-66
2023/09/19 11:56:56;;;;;;;24.55;6.25;;;27.30;53.70;;;;;;5087278;28;20081;-65
2023/09/19 11:59:33;;;;;;;31.33;6.90;;;27.40;54.00;;;;;;5096652;28;20048;-65
2023/09/19 12:02:10;;;;;;;35.03;7.15;;;27.10;55.10;;;;;;5096651;28;20028;-65
2023/09/19 12:04:38;;;;;;;24.05;6.25;;;27.20;55.10;;;;;;5096993;28;20024;-65
2023/09/19 12:07:15;;;;;;;27.55;6.72;;;26.40;58.40;;;;;;5094816;28;20024;-65
2023/09/19 12:09:52;;;;;;;23.85;6.72;;;26.30;61.30;;;;;;5097205;28;20098;-65
2023/09/19 12:12:29;;;;;;;26.17;7.50;;;25.70;63.70;;;;;;5096305;28;20032;-65
2023/09/19 12:15:03;;;;;;;26.77;6.47;;;25.70;65.80;;;;;;5096206;28;20204;-65
2023/09/19 12:17:41;;;;;;;26.52;6.90;;;25.90;65.60;;;;;;5096886;28;20028;-65
2023/09/19 12:20:14;;;;;;;27.92;6.68;;;25.90;66.10;;;;;;5096715;28;20107;-65
2023/09/19 12:22:47;;;;;;;31.10;7.93;;;25.70;68.60;;;;;;5096628;28;20484;-65
2023/09/19 12:25:21;;;;;;;29.88;6.95;;;25.70;69.60;;;;;;5096685;28;20123;-65
2023/09/19 12:27:52;;;;;;;29.20;6.40;;;25.90;70.10;;;;;;5095950;28;20478;-66
2023/09/19 12:30:20;;;;;;;29.17;7.60;;;25.70;72.10;;;;;;5096341;28;20031;-66
2023/09/19 12:32:49;;;;;;;25.70;6.80;;;25.60;73.40;;;;;;5095740;28;20032;-66
2023/09/19 12:35:30;;;;;;;21.67;6.28;;;25.60;74.90;;;;;;5095994;28;20546;-66
2023/09/19 12:37:56;;;;;;;31.50;8.50;;;25.40;77.20;;;;;;5095595;28;20043;-66
2023/09/19 12:40:27;;;;;;;32.85;6.82;;;25.60;77.90;;;;;;5096433;28;20035;-66
2023/09/19 12:43:06;;;;;;;42.75;7.90;;;25.60;77.90;;;;;;5093482;28;20035;-66
2023/09/19 12:45:35;;;;;;;37.20;7.23;;;25.60;78.60;;;;;;5095633;28;20028;-66
2023/09/19 12:48:29;;;;;;;23.30;6.50;;;25.30;79.40;;;;;;5095464;28;20668;-66
2023/09/19 12:51:12;;;;;;;22.45;6.85;;;25.30;79.70;;;;;;5095909;28;20469;-66
2023/09/19 12:53:49;;;;;;;17.63;5.50;;;25.40;80.40;;;;;;5095975;28;20103;-66
2023/09/19 12:56:17;;;;;;;24.02;6.90;;;25.50;81.90;;;;;;5095759;28;20101;-65
2023/09/19 12:59:03;;;;;;;28.52;7.40;;;25.50;82.30;;;;;;5095006;28;20039;-66
2023/09/19 13:01:30;;;;;;;32.15;7.47;;;25.50;83.60;;;;;;5078144;28;20028;-66